createdAt,value
2023-04-14T00:00:37.957Z,2.00
2023-04-14T00:03:04.677Z,5.50
2023-04-14T00:05:32.123Z,2.00
2023-04-14T00:07:58.904Z,3.00
2023-04-14T00:10:26.941Z,1.75
2023-04-14T00:12:53.769Z,2.50
2023-04-14T00:15:20.862Z,2.75
2023-04-14T00:17:47.582Z,2.00
2023-04-14T00:20:15.890Z,2.25
2023-04-14T00:22:42.582Z,3.50
2023-04-14T00:25:09.612Z,1.50
2023-04-14T00:27:37.711Z,3.00
2023-04-14T00:30:04.908Z,2.50
2023-04-14T00:32:31.605Z,7.25
2023-04-14T00:34:58.341Z,4.25
2023-04-14T00:37:24.959Z,2.75
2023-04-14T00:39:51.618Z,5.00
2023-04-14T00:42:18.263Z,2.75
2023-04-14T00:44:46.334Z,6.50
2023-04-14T00:47:13.111Z,4.00
2023-04-14T00:49:40.035Z,4.25
2023-04-14T00:52:06.817Z,3.00
2023-04-14T00:54:34.844Z,3.25
2023-04-14T00:57:02.735Z,2.00
2023-04-14T00:59:29.519Z,6.75
2023-04-14T01:01:58.173Z,2.00
2023-04-14T01:04:33.684Z,3172.80
2023-04-14T01:07:07.575Z,7.75
2023-04-14T01:09:34.497Z,2393.80
2023-04-14T01:12:12.001Z,6.75
2023-04-14T01:14:44.841Z,5.25
2023-04-14T01:17:19.862Z,3495.80
2023-04-14T01:20:06.073Z,2457.80
2023-04-14T01:22:37.784Z,1272.40
2023-04-14T01:25:27.978Z,9.00
2023-04-14T01:28:14.036Z,1117.00
2023-04-14T01:30:57.290Z,6.25
2023-04-14T01:33:30.307Z,9.25
2023-04-14T01:36:03.961Z,2432.20
2023-04-14T01:38:33.866Z,8.00
2023-04-14T01:41:05.301Z,3.75
2023-04-14T01:43:34.178Z,6.25
2023-04-14T01:46:05.141Z,7.75
2023-04-14T01:48:33.898Z,14.00
2023-04-14T01:51:02.374Z,604.75
2023-04-14T01:53:32.617Z,1059.00
2023-04-14T01:56:01.549Z,1549.40
2023-04-14T01:58:28.921Z,10.00
2023-04-14T02:00:57.048Z,5.50
2023-04-14T02:03:25.642Z,3.00
2023-04-14T02:05:55.682Z,86.80
2023-04-14T02:08:24.354Z,3.50
2023-04-14T02:10:54.880Z,2941.50
2023-04-14T02:13:23.932Z,3.50
2023-04-14T02:15:51.863Z,3.25
2023-04-14T02:18:19.791Z,4078.33
2023-04-14T02:20:48.548Z,2.25
2023-04-14T02:23:16.546Z,3.50
2023-04-14T02:25:52.033Z,2.50
2023-04-14T02:28:21.408Z,267.60
2023-04-14T02:30:51.494Z,3763.50
2023-04-14T02:33:21.808Z,3366.20
2023-04-14T02:35:58.280Z,2.00
2023-04-14T02:38:34.886Z,2.25
2023-04-14T02:41:07.276Z,1248.80
2023-04-14T02:43:44.047Z,104.25
2023-04-14T02:46:16.400Z,2926.40
2023-04-14T02:48:44.813Z,2521.60
2023-04-14T02:51:14.458Z,2672.50
2023-04-14T02:53:42.804Z,1670.40
2023-04-14T02:56:09.932Z,1259.00
2023-04-14T02:58:37.640Z,3.00
2023-04-14T03:01:05.458Z,1245.20
2023-04-14T03:03:32.769Z,911.00
2023-04-14T03:05:59.899Z,4.25
2023-04-14T03:08:27.984Z,823.75
2023-04-14T03:10:57.142Z,4.50
2023-04-14T03:13:28.219Z,439.40
2023-04-14T03:15:56.408Z,8.50
2023-04-14T03:18:24.164Z,78.00
2023-04-14T03:20:51.513Z,694.67
2023-04-14T03:23:21.283Z,3281.40
2023-04-14T03:25:48.516Z,2683.25
2023-04-14T03:28:20.279Z,899.00
2023-04-14T03:30:51.222Z,1247.00
2023-04-14T03:33:23.455Z,3979.50
2023-04-14T03:35:52.844Z,3765.20
2023-04-14T03:38:20.603Z,2145.00
2023-04-14T03:40:48.148Z,259.00
2023-04-14T03:43:17.501Z,3688.75
2023-04-14T03:45:44.411Z,1621.80
2023-04-14T03:48:15.198Z,2668.50
2023-04-14T03:50:43.423Z,2957.25
2023-04-14T03:53:11.321Z,329.00
2023-04-14T03:55:40.495Z,6.25
2023-04-14T03:58:11.958Z,700.40
2023-04-14T04:00:41.392Z,2248.20
2023-04-14T04:03:09.852Z,1980.60
2023-04-14T04:05:38.092Z,2376.25
2023-04-14T04:08:06.695Z,1780.60
2023-04-14T04:10:34.666Z,2885.00
2023-04-14T04:13:02.343Z,3791.50
2023-04-14T04:15:31.593Z,636.00
2023-04-14T04:18:00.387Z,11.75
2023-04-14T04:20:30.605Z,1430.25
2023-04-14T04:23:00.910Z,13.50
2023-04-14T04:25:27.470Z,7.50
2023-04-14T04:27:54.306Z,3583.00
2023-04-14T04:30:24.001Z,11.25
2023-04-14T04:32:50.882Z,2061.00
2023-04-14T04:35:20.976Z,1367.20
2023-04-14T04:37:48.854Z,712.50
2023-04-14T04:40:15.640Z,2971.50
2023-04-14T04:42:42.346Z,2477.20
2023-04-14T04:45:10.049Z,2077.00
2023-04-14T04:47:36.728Z,3488.75
2023-04-14T04:50:03.749Z,4013.00
2023-04-14T04:52:31.728Z,2513.60
2023-04-14T04:54:58.342Z,2403.00
2023-04-14T04:57:24.978Z,6.25
2023-04-14T04:59:51.619Z,4084.25
2023-04-14T05:02:18.255Z,1761.40
2023-04-14T05:04:45.068Z,221.25
2023-04-14T05:07:11.707Z,1861.25
2023-04-14T05:09:39.770Z,3230.80
2023-04-14T05:12:06.781Z,1540.25
2023-04-14T05:14:33.330Z,1263.33
2023-04-14T05:16:59.921Z,6.75
2023-04-14T05:19:26.528Z,1775.67
2023-04-14T05:21:53.142Z,2761.80
2023-04-14T05:24:20.747Z,10.75
2023-04-14T05:27:09.462Z,3941.75
2023-04-14T05:29:35.252Z,3767.00
2023-04-14T05:32:02.870Z,3439.25
2023-04-14T05:34:29.496Z,652.75
2023-04-14T05:36:56.061Z,84.20
2023-04-14T05:39:22.739Z,3753.50
2023-04-14T05:41:56.557Z,2872.80
2023-04-14T05:44:23.233Z,3252.00
2023-04-14T05:46:50.932Z,3500.67
2023-04-14T05:49:17.650Z,504.00
2023-04-14T05:51:44.283Z,2062.80
2023-04-14T05:54:10.900Z,3702.00
2023-04-14T05:56:37.520Z,3537.60
2023-04-14T05:59:05.616Z,3998.40
2023-04-14T06:01:32.328Z,1602.20
2023-04-14T06:03:59.155Z,3549.20
2023-04-14T06:06:27.217Z,4001.75
2023-04-14T06:08:53.783Z,3724.00
2023-04-14T06:11:20.428Z,4116.00
2023-04-14T06:13:47.036Z,3856.40
2023-04-14T06:16:16.195Z,3955.60
2023-04-14T06:18:43.001Z,1943.50
2023-04-14T06:21:09.691Z,3973.00
2023-04-14T06:23:36.267Z,3604.80
2023-04-14T06:26:03.619Z,3989.20
2023-04-14T06:28:30.177Z,3989.75
2023-04-14T06:30:56.874Z,4015.40
2023-04-14T06:33:24.980Z,3571.80
2023-04-14T06:35:51.652Z,3863.80
2023-04-14T06:38:19.036Z,2999.80
2023-04-14T06:40:45.678Z,4017.20
2023-04-14T06:43:12.234Z,4015.40
2023-04-14T06:45:38.883Z,3547.60
2023-04-14T06:48:07.537Z,3976.00
2023-04-14T06:50:36.638Z,3770.00
2023-04-14T06:53:03.248Z,4048.60
2023-04-14T06:55:29.849Z,3923.80
2023-04-14T06:57:56.408Z,4037.50
2023-04-14T07:00:23.487Z,3915.75
2023-04-14T07:02:50.150Z,3774.00
2023-04-14T07:05:16.841Z,3985.20
2023-04-14T07:07:44.925Z,3083.25
2023-04-14T07:10:11.514Z,3952.50
2023-04-14T07:12:38.167Z,3652.00
2023-04-14T07:15:06.637Z,3960.80
2023-04-14T07:17:35.825Z,2586.25
2023-04-14T07:20:02.664Z,3880.20
2023-04-14T07:22:29.228Z,2438.00
2023-04-14T07:24:57.341Z,2974.00
2023-04-14T07:27:25.934Z,4020.75
2023-04-14T07:29:52.531Z,2654.00
2023-04-14T07:32:19.124Z,3959.60
2023-04-14T07:34:46.728Z,3926.20
2023-04-14T07:37:13.324Z,3934.80
2023-04-14T07:39:40.235Z,3927.40
2023-04-14T07:42:08.220Z,3737.80
2023-04-14T07:44:34.973Z,3913.20
2023-04-14T07:47:02.562Z,3640.00
2023-04-14T07:49:29.146Z,3957.00
2023-04-14T07:51:55.855Z,3700.20
2023-04-14T07:54:22.593Z,3914.25
2023-04-14T07:56:50.263Z,3854.80
2023-04-14T07:59:18.293Z,3600.25
2023-04-14T08:01:46.014Z,483.40
2023-04-14T08:04:13.052Z,3916.80
2023-04-14T08:06:39.789Z,3565.80
2023-04-14T08:09:06.509Z,3900.00
2023-04-14T08:11:33.186Z,3284.40
2023-04-14T08:13:59.793Z,3933.75
2023-04-14T08:16:28.756Z,2785.33
2023-04-14T08:18:57.717Z,2873.75
2023-04-14T08:21:24.640Z,3171.80
2023-04-14T08:23:51.650Z,3916.80
2023-04-14T08:26:19.293Z,3705.25
2023-04-14T08:28:45.861Z,3841.80
2023-04-14T08:31:13.494Z,3961.50
2023-04-14T08:33:41.540Z,3894.80
2023-04-14T08:36:08.302Z,1378.75
2023-04-14T08:38:34.971Z,3933.40
2023-04-14T08:41:07.160Z,3979.60
2023-04-14T08:43:34.138Z,3902.40
2023-04-14T08:46:01.656Z,3923.60
2023-04-14T08:48:30.552Z,3909.20
2023-04-14T08:51:06.547Z,3884.00
2023-04-14T08:53:33.399Z,3758.40
2023-04-14T08:56:03.710Z,3900.20
2023-04-14T08:58:30.879Z,3635.60
2023-04-14T09:00:58.555Z,3911.00
2023-04-14T09:03:25.458Z,3545.80
2023-04-14T09:05:52.834Z,3739.50
2023-04-14T09:08:21.499Z,3873.80
2023-04-14T09:10:48.750Z,3872.67
2023-04-14T09:13:16.911Z,3859.80
2023-04-14T09:15:43.923Z,3841.60
2023-04-14T09:18:11.168Z,3845.60
2023-04-14T09:20:41.012Z,3864.25
2023-04-14T09:23:09.102Z,3639.60
2023-04-14T09:25:38.160Z,3873.20
2023-04-14T09:28:05.059Z,3845.40
2023-04-14T09:30:32.107Z,3849.00
2023-04-14T09:32:58.938Z,3788.50
2023-04-14T09:35:43.400Z,3733.20
2023-04-14T09:38:10.083Z,3763.40
2023-04-14T09:40:38.103Z,3767.25
2023-04-14T09:43:04.805Z,3720.60
2023-04-14T09:45:43.232Z,1176.80
2023-04-14T09:48:10.601Z,3725.40
2023-04-14T09:50:56.416Z,3738.25
2023-04-14T09:53:25.636Z,3773.20
2023-04-14T09:55:53.831Z,3705.25
2023-04-14T09:58:20.916Z,3747.80
2023-04-14T10:00:47.929Z,3680.50
2023-04-14T10:03:14.736Z,3763.00
2023-04-14T10:05:46.284Z,3659.25
2023-04-14T10:08:12.942Z,3746.50
2023-04-14T10:10:39.792Z,3736.25
2023-04-14T10:13:07.802Z,5.25
2023-04-14T10:15:34.622Z,228.60
2023-04-14T10:18:02.021Z,3635.20
2023-04-14T10:20:29.663Z,3747.80
2023-04-14T10:22:56.926Z,3783.40
2023-04-14T10:25:25.615Z,2286.40
2023-04-14T10:27:52.723Z,3606.00
2023-04-14T10:30:21.290Z,3753.60
2023-04-14T10:32:48.216Z,3648.80
2023-04-14T10:35:16.325Z,3728.60
2023-04-14T10:37:49.699Z,3812.25
2023-04-14T10:40:16.297Z,3183.00
2023-04-14T10:42:52.758Z,1760.00
2023-04-14T10:45:21.356Z,3228.00
2023-04-14T10:47:49.312Z,757.00
2023-04-14T10:50:17.257Z,3335.80
2023-04-14T10:52:50.240Z,1893.00
2023-04-14T10:55:16.896Z,3655.40
2023-04-14T10:57:45.573Z,551.75
2023-04-14T11:00:31.704Z,835.50
2023-04-14T11:03:03.075Z,76.80
2023-04-14T11:05:32.811Z,3779.60
2023-04-14T11:08:02.666Z,2466.50
2023-04-14T11:10:33.078Z,4.75
2023-04-14T11:13:04.655Z,1.00
2023-04-14T11:15:51.428Z,2710.80
2023-04-14T11:18:21.203Z,60.00
2023-04-14T11:20:51.336Z,10.25
2023-04-14T11:23:18.191Z,3826.75
2023-04-14T11:25:45.063Z,12.75
2023-04-14T11:28:11.694Z,8.00
2023-04-14T11:30:40.945Z,42.00
2023-04-14T11:33:08.963Z,422.50
2023-04-14T11:35:35.647Z,12.50
2023-04-14T11:38:02.315Z,6.25
2023-04-14T11:40:29.004Z,8.75
2023-04-14T11:42:57.187Z,10.75
2023-04-14T11:45:28.062Z,65.00
2023-04-14T11:47:58.752Z,4.00
2023-04-14T11:50:29.625Z,1.50
2023-04-14T11:52:56.237Z,1.00
2023-04-14T11:55:22.905Z,5.00
2023-04-14T11:57:49.565Z,5.75
2023-04-14T12:00:16.693Z,3.00
2023-04-14T12:02:44.413Z,3821.00
2023-04-14T12:05:11.817Z,3.25
2023-04-14T12:07:42.869Z,3.25
2023-04-14T12:10:10.795Z,5.75
2023-04-14T12:12:37.466Z,2.75
2023-04-14T12:15:05.072Z,8.75
2023-04-14T12:17:32.102Z,15.25
2023-04-14T12:19:58.792Z,5.25
2023-04-14T12:22:26.129Z,3764.75
2023-04-14T12:24:55.310Z,61.67
2023-04-14T12:27:23.648Z,3835.50
2023-04-14T12:29:51.222Z,3862.00
2023-04-14T12:32:18.436Z,31.50
2023-04-14T12:34:53.335Z,415.00
2023-04-14T12:37:24.753Z,301.40
2023-04-14T12:39:52.317Z,34.00
2023-04-14T12:42:20.652Z,428.25
2023-04-14T12:44:58.649Z,39.50
2023-04-14T12:47:30.217Z,25.75
2023-04-14T12:49:57.532Z,22.25
2023-04-14T12:52:37.333Z,14.25
2023-04-14T12:55:04.988Z,8.75
2023-04-14T12:57:34.349Z,9.75
2023-04-14T13:00:01.522Z,6.00
2023-04-14T13:02:29.095Z,7.75
2023-04-14T13:04:55.961Z,8.75
2023-04-14T13:07:23.171Z,9.75
2023-04-14T13:09:50.338Z,9.25
2023-04-14T13:12:17.061Z,8.75
2023-04-14T13:14:45.302Z,19.25
2023-04-14T13:17:11.962Z,40.00
2023-04-14T13:19:38.754Z,41.00
2023-04-14T13:22:05.556Z,24.25
2023-04-14T13:24:32.240Z,38.00
2023-04-14T13:26:58.850Z,18.75
2023-04-14T13:29:25.531Z,27.50
2023-04-14T13:31:53.673Z,14.50
2023-04-14T13:34:20.398Z,12.75
2023-04-14T13:36:47.039Z,47.33
2023-04-14T13:39:13.708Z,59.67
2023-04-14T13:41:40.298Z,236.80
2023-04-14T13:44:06.894Z,933.25
2023-04-14T13:46:40.496Z,13.50
2023-04-14T13:49:09.099Z,68.00
2023-04-14T13:51:35.708Z,67.40
2023-04-14T13:54:02.311Z,77.50
2023-04-14T13:56:28.895Z,2.00
2023-04-14T13:58:56.536Z,8.00
2023-04-14T14:01:23.341Z,71.75
2023-04-14T14:03:50.754Z,61.33
2023-04-14T14:06:19.058Z,350.40
2023-04-14T14:08:45.745Z,13.25
2023-04-14T14:11:12.321Z,27.50
2023-04-14T14:13:39.373Z,52.33
2023-04-14T14:16:07.103Z,75.80
2023-04-14T14:18:35.628Z,80.40
2023-04-14T14:21:02.375Z,12.75
2023-04-14T14:23:30.582Z,30.00
2023-04-14T14:25:57.191Z,9.75
2023-04-14T14:28:23.769Z,56.25
2023-04-14T14:30:50.370Z,77.50
2023-04-14T14:33:16.989Z,83.00
2023-04-14T14:35:44.017Z,15.00
2023-04-14T14:38:10.697Z,37.25
2023-04-14T14:40:39.206Z,18.50
2023-04-14T14:43:05.767Z,22.00
2023-04-14T14:45:33.345Z,14.50
2023-04-14T14:48:00.897Z,20.00
2023-04-14T14:50:27.568Z,38.25
2023-04-14T14:52:54.136Z,37.50
2023-04-14T14:55:20.981Z,11.25
2023-04-14T14:57:49.045Z,10.00
2023-04-14T15:00:16.136Z,6.00
2023-04-14T15:02:42.850Z,9.75
2023-04-14T15:05:09.781Z,11.75
2023-04-14T15:07:36.445Z,5.00
2023-04-14T15:10:03.286Z,15.25
2023-04-14T15:12:29.930Z,5.00
2023-04-14T15:14:58.085Z,2.00
2023-04-14T15:17:24.802Z,4.25
2023-04-14T15:19:51.501Z,1.50
2023-04-14T15:22:18.170Z,4.00
2023-04-14T15:24:44.869Z,2.50
2023-04-14T15:27:11.483Z,3.00
2023-04-14T15:29:38.106Z,6.75
2023-04-14T15:32:06.199Z,14.00
2023-04-14T15:34:32.916Z,29.80
2023-04-14T15:36:59.588Z,72.00
2023-04-14T15:39:26.272Z,17.25
2023-04-14T15:41:52.887Z,41.25
2023-04-14T15:44:19.643Z,19.00
2023-04-14T15:46:46.265Z,7.25
2023-04-14T15:49:14.227Z,18.50
2023-04-14T15:51:40.962Z,12.50
2023-04-14T15:54:07.542Z,2.75
2023-04-14T15:56:34.217Z,4.00
2023-04-14T15:59:00.974Z,41.00
2023-04-14T16:01:27.581Z,2.00
2023-04-14T16:03:54.232Z,2.50
2023-04-14T16:06:22.234Z,2.50
2023-04-14T16:08:50.015Z,2.50
2023-04-14T16:11:16.791Z,2.00
2023-04-14T16:13:43.513Z,2.00
2023-04-14T16:16:10.207Z,1.75
2023-04-14T16:18:36.816Z,2.00
2023-04-14T16:21:03.868Z,1.00
2023-04-14T16:23:31.831Z,32.60
2023-04-14T16:25:58.488Z,45.20
2023-04-14T16:28:25.216Z,2.50
2023-04-14T16:30:51.829Z,2.50
2023-04-14T16:33:18.729Z,3.00
2023-04-14T16:35:45.289Z,5.00
2023-04-14T16:38:12.139Z,3.00
2023-04-14T16:40:40.116Z,2.75
2023-04-14T16:43:10.158Z,45.80
2023-04-14T16:45:37.817Z,1.75
2023-04-14T16:48:04.572Z,4.00
2023-04-14T16:50:31.230Z,2.00
2023-04-14T16:52:57.796Z,119.25
2023-04-14T16:55:24.494Z,1218.00
2023-04-14T16:57:52.481Z,1189.00
2023-04-14T17:00:19.451Z,89.40
2023-04-14T17:02:46.202Z,90.00
2023-04-14T17:05:13.225Z,88.60
2023-04-14T17:07:40.063Z,83.40
2023-04-14T17:10:07.283Z,478.60
2023-04-14T17:12:33.989Z,184.20
2023-04-14T17:15:01.979Z,42.20
2023-04-14T17:17:28.626Z,533.60
2023-04-14T17:19:56.858Z,98.50
2023-04-14T17:22:24.639Z,1144.00
2023-04-14T17:24:51.672Z,92.60
2023-04-14T17:27:18.393Z,83.00
2023-04-14T17:29:44.960Z,8.00
2023-04-14T17:32:13.395Z,8.25
2023-04-14T17:34:40.258Z,239.25
2023-04-14T17:37:07.010Z,18.25
2023-04-14T17:39:33.717Z,8.75
2023-04-14T17:42:00.333Z,8.50
2023-04-14T17:44:31.190Z,49.50
2023-04-14T17:46:57.857Z,1452.50
2023-04-14T17:49:25.886Z,1233.80
2023-04-14T17:51:52.477Z,155.40
2023-04-14T17:54:20.822Z,10.50
2023-04-14T17:56:48.298Z,2690.60
2023-04-14T17:59:15.196Z,1820.00
2023-04-14T18:01:41.916Z,940.40
2023-04-14T18:04:08.991Z,568.80
2023-04-14T18:06:37.112Z,1837.40
2023-04-14T18:09:04.076Z,3806.40
2023-04-14T18:11:30.739Z,1298.00
2023-04-14T18:13:57.789Z,2353.00
2023-04-14T18:16:24.749Z,17.00
2023-04-14T18:18:51.359Z,50.00
2023-04-14T18:21:18.184Z,11.00
2023-04-14T18:24:47.859Z,10.25
2023-04-14T18:26:32.719Z,43.50
2023-04-14T18:28:59.871Z,417.00
2023-04-14T18:31:26.671Z,406.75
2023-04-14T18:33:53.240Z,22.50
2023-04-14T18:36:19.880Z,45.00
2023-04-14T18:38:47.904Z,33.50
2023-04-14T18:41:14.514Z,13.50
2023-04-14T18:43:41.111Z,9.75
2023-04-14T18:46:08.049Z,26.20
2023-04-14T18:48:34.742Z,3.00
2023-04-14T18:51:01.924Z,6.00
2023-04-14T18:53:28.721Z,856.25
2023-04-14T18:55:56.732Z,69.20
2023-04-14T18:58:23.311Z,26.75
2023-04-14T19:00:50.859Z,4.00
2023-04-14T19:03:17.594Z,8.25
2023-04-14T19:05:44.269Z,6.50
2023-04-14T19:08:10.881Z,4.75
2023-04-14T19:10:37.537Z,20.00
2023-04-14T19:13:05.456Z,10.25
2023-04-14T19:15:32.144Z,4.25
2023-04-14T19:17:58.860Z,15.25
2023-04-14T19:20:25.514Z,14.00
2023-04-14T19:22:52.166Z,15.50
2023-04-14T19:25:18.897Z,10.75
2023-04-14T19:27:45.500Z,20.50
2023-04-14T19:30:14.685Z,7.00
2023-04-14T19:32:41.671Z,12.00
2023-04-14T19:35:09.655Z,10.25
2023-04-14T19:37:37.305Z,2.75
2023-04-14T19:40:04.961Z,2.00
2023-04-14T19:42:34.152Z,11.00
2023-04-14T19:45:02.129Z,13.50
2023-04-14T19:47:30.158Z,37.75
2023-04-14T19:49:56.771Z,32.25
2023-04-14T19:52:23.429Z,64.40
2023-04-14T19:54:50.100Z,32.25
2023-04-14T19:57:17.865Z,17.75
2023-04-14T19:59:44.462Z,9.25
2023-04-14T20:02:11.111Z,14.50
2023-04-14T20:04:39.205Z,15.75
2023-04-14T20:07:05.982Z,17.50
2023-04-14T20:09:32.641Z,25.25
2023-04-14T20:12:00.121Z,25.00
2023-04-14T20:14:26.709Z,16.25
2023-04-14T20:16:53.432Z,9.00
2023-04-14T20:19:20.001Z,8.75
2023-04-14T20:21:47.979Z,9.00
2023-04-14T20:24:14.617Z,7.75
2023-04-14T20:26:41.181Z,8.50
2023-04-14T20:29:07.791Z,450.60
2023-04-14T20:31:34.384Z,19.50
2023-04-14T20:34:00.958Z,25.00
2023-04-14T20:36:27.524Z,25.75
2023-04-14T20:38:55.462Z,17.25
2023-04-14T20:41:22.111Z,32.50
2023-04-14T20:43:48.769Z,32.75
2023-04-14T20:46:15.686Z,20.75
2023-04-14T20:48:42.379Z,26.50
2023-04-14T20:51:08.947Z,21.50
2023-04-14T20:53:35.833Z,28.50
2023-04-14T20:56:04.053Z,36.25
2023-04-14T20:58:30.620Z,44.00
2023-04-14T21:00:57.241Z,37.75
2023-04-14T21:03:24.062Z,31.75
2023-04-14T21:05:50.908Z,42.25
2023-04-14T21:08:17.485Z,50.00
2023-04-14T21:11:14.541Z,37.50
2023-04-14T21:15:41.503Z,49.00
2023-04-14T21:16:18.681Z,40.75
2023-04-14T21:18:45.345Z,34.50
2023-04-14T21:21:12.092Z,35.00
2023-04-14T21:23:38.754Z,58.50
2023-04-14T21:26:05.389Z,389.25
2023-04-14T21:28:33.380Z,54.00
2023-04-14T21:31:00.209Z,40.75
2023-04-14T21:33:26.804Z,37.50
2023-04-14T21:35:54.294Z,36.00
2023-04-14T21:38:20.946Z,38.50
2023-04-14T21:40:47.634Z,44.25
2023-04-14T21:43:14.212Z,35.75
2023-04-14T21:45:42.378Z,26.50
2023-04-14T21:48:09.181Z,43.50
2023-04-14T21:50:36.872Z,38.25
2023-04-14T21:53:04.544Z,42.50
2023-04-14T21:55:31.276Z,45.25
2023-04-14T21:57:58.284Z,51.25
2023-04-14T22:00:24.946Z,61.20
2023-04-14T22:02:53.155Z,47.00
2023-04-14T22:05:19.871Z,92.80
2023-04-14T22:07:46.613Z,67.25
2023-04-14T22:10:13.386Z,51.00
2023-04-14T22:12:40.479Z,55.25
2023-04-14T22:15:08.154Z,464.80
2023-04-14T22:17:34.989Z,45.50
2023-04-14T22:20:05.812Z,52.75
2023-04-14T22:22:33.749Z,52.75
2023-04-14T22:25:00.703Z,49.75
2023-04-14T22:27:27.402Z,40.75
2023-04-14T22:29:53.998Z,33.50
2023-04-14T22:32:20.620Z,47.75
2023-04-14T22:34:47.267Z,44.50
2023-04-14T22:37:15.291Z,76.75
2023-04-14T22:39:41.967Z,43.75
2023-04-14T22:42:08.631Z,70.75
2023-04-14T22:44:35.240Z,50.75
2023-04-14T22:47:01.817Z,51.75
2023-04-14T22:49:28.394Z,42.00
2023-04-14T22:51:55.044Z,48.50
2023-04-14T22:54:22.967Z,52.25
2023-04-14T22:56:49.550Z,52.50
2023-04-14T22:59:16.174Z,55.75
2023-04-14T23:01:42.800Z,48.00
2023-04-14T23:04:09.724Z,55.00
2023-04-14T23:06:36.720Z,57.25
2023-04-14T23:09:03.533Z,56.50
2023-04-14T23:11:31.806Z,52.75
2023-04-14T23:13:58.405Z,55.75
2023-04-14T23:16:25.065Z,59.00
2023-04-14T23:18:51.704Z,49.75
2023-04-14T23:21:18.955Z,49.25
2023-04-14T23:23:45.839Z,46.00
2023-04-14T23:26:13.546Z,52.25
2023-04-14T23:28:41.555Z,63.67
2023-04-14T23:31:08.320Z,49.75
2023-04-14T23:33:34.945Z,52.25
2023-04-14T23:36:01.545Z,49.25
2023-04-14T23:38:28.204Z,54.75
2023-04-14T23:40:54.980Z,50.75
2023-04-14T23:43:21.637Z,52.75
2023-04-14T23:45:49.758Z,58.00
2023-04-14T23:48:16.362Z,55.50
2023-04-14T23:50:59.889Z,53.75
2023-04-14T23:53:29.601Z,60.50
2023-04-14T23:55:56.460Z,59.75
2023-04-14T23:58:26.750Z,97.40
